sensor_id;sensor_type;location;lat;lon;timestamp;P1;durP1;ratioP1;P2;durP2;ratioP2
57113;SDS011;42994;51.606;9.988;2024-01-06T00:00:30;5.05;;;1.83;;
57113;SDS011;42994;51.606;9.988;2024-01-06T00:02:56;3.58;;;0.90;;
57113;SDS011;42994;51.606;9.988;2024-01-06T00:05:23;2.45;;;1.17;;
57113;SDS011;42994;51.606;9.988;2024-01-06T00:07:49;3.25;;;0.93;;
57113;SDS011;42994;51.606;9.988;2024-01-06T00:10:16;2.80;;;1.00;;
57113;SDS011;42994;51.606;9.988;2024-01-06T00:12:45;8.77;;;1.17;;
57113;SDS011;42994;51.606;9.988;2024-01-06T00:15:12;4.00;;;1.15;;
57113;SDS011;42994;51.606;9.988;2024-01-06T00:17:38;3.88;;;0.90;;
57113;SDS011;42994;51.606;9.988;2024-01-06T00:20:06;4.38;;;1.00;;
57113;SDS011;42994;51.606;9.988;2024-01-06T00:22:33;5.45;;;1.13;;
57113;SDS011;42994;51.606;9.988;2024-01-06T00:25:00;2.45;;;1.02;;
57113;SDS011;42994;51.606;9.988;2024-01-06T00:27:27;2.22;;;1.20;;
57113;SDS011;42994;51.606;9.988;2024-01-06T00:29:55;7.80;;;1.85;;
57113;SDS011;42994;51.606;9.988;2024-01-06T00:32:21;7.15;;;1.35;;
57113;SDS011;42994;51.606;9.988;2024-01-06T00:34:48;4.32;;;1.17;;
57113;SDS011;42994;51.606;9.988;2024-01-06T00:37:15;3.53;;;0.90;;
57113;SDS011;42994;51.606;9.988;2024-01-06T00:39:41;2.25;;;1.08;;
57113;SDS011;42994;51.606;9.988;2024-01-06T00:42:08;4.03;;;1.02;;
57113;SDS011;42994;51.606;9.988;2024-01-06T00:44:35;4.15;;;1.13;;
57113;SDS011;42994;51.606;9.988;2024-01-06T00:47:04;2.72;;;1.38;;
57113;SDS011;42994;51.606;9.988;2024-01-06T00:49:30;7.25;;;1.58;;
57113;SDS011;42994;51.606;9.988;2024-01-06T00:51:57;3.15;;;1.00;;
57113;SDS011;42994;51.606;9.988;2024-01-06T00:54:23;55.88;;;26.13;;
57113;SDS011;42994;51.606;9.988;2024-01-06T00:56:50;28.95;;;15.45;;
57113;SDS011;42994;51.606;9.988;2024-01-06T00:59:17;2.13;;;1.55;;
57113;SDS011;42994;51.606;9.988;2024-01-06T01:01:43;3.20;;;1.17;;
57113;SDS011;42994;51.606;9.988;2024-01-06T01:04:11;6.13;;;1.23;;
57113;SDS011;42994;51.606;9.988;2024-01-06T01:06:38;5.43;;;1.40;;
57113;SDS011;42994;51.606;9.988;2024-01-06T01:09:04;4.95;;;1.77;;
57113;SDS011;42994;51.606;9.988;2024-01-06T01:11:30;6.07;;;1.40;;
57113;SDS011;42994;51.606;9.988;2024-01-06T01:13:57;2.92;;;0.80;;
57113;SDS011;42994;51.606;9.988;2024-01-06T01:16:24;5.13;;;1.58;;
57113;SDS011;42994;51.606;9.988;2024-01-06T01:18:50;6.93;;;1.90;;
57113;SDS011;42994;51.606;9.988;2024-01-06T01:21:17;5.95;;;1.15;;
57113;SDS011;42994;51.606;9.988;2024-01-06T01:23:44;5.47;;;1.27;;
57113;SDS011;42994;51.606;9.988;2024-01-06T01:26:10;4.75;;;1.60;;
57113;SDS011;42994;51.606;9.988;2024-01-06T01:28:37;4.97;;;1.00;;
57113;SDS011;42994;51.606;9.988;2024-01-06T01:31:04;5.95;;;1.55;;
57113;SDS011;42994;51.606;9.988;2024-01-06T01:33:30;4.65;;;1.17;;
57113;SDS011;42994;51.606;9.988;2024-01-06T01:35:57;8.55;;;1.40;;
57113;SDS011;42994;51.606;9.988;2024-01-06T01:38:25;4.88;;;1.20;;
57113;SDS011;42994;51.606;9.988;2024-01-06T01:40:51;3.15;;;1.02;;
57113;SDS011;42994;51.606;9.988;2024-01-06T01:43:18;4.53;;;1.00;;
57113;SDS011;42994;51.606;9.988;2024-01-06T01:45:45;4.47;;;1.33;;
57113;SDS011;42994;51.606;9.988;2024-01-06T01:48:16;4.55;;;1.08;;
57113;SDS011;42994;51.606;9.988;2024-01-06T01:50:43;2.55;;;1.02;;
57113;SDS011;42994;51.606;9.988;2024-01-06T01:53:10;7.70;;;1.10;;
57113;SDS011;42994;51.606;9.988;2024-01-06T01:55:40;3.25;;;1.02;;
57113;SDS011;42994;51.606;9.988;2024-01-06T01:58:08;3.67;;;1.35;;
57113;SDS011;42994;51.606;9.988;2024-01-06T02:00:36;4.43;;;1.65;;
57113;SDS011;42994;51.606;9.988;2024-01-06T02:03:03;4.57;;;1.20;;
57113;SDS011;42994;51.606;9.988;2024-01-06T02:05:31;7.03;;;1.27;;
57113;SDS011;42994;51.606;9.988;2024-01-06T02:07:58;2.47;;;1.33;;
57113;SDS011;42994;51.606;9.988;2024-01-06T02:10:24;3.25;;;1.00;;
57113;SDS011;42994;51.606;9.988;2024-01-06T02:12:53;6.95;;;1.27;;
57113;SDS011;42994;51.606;9.988;2024-01-06T02:15:19;6.25;;;1.30;;
57113;SDS011;42994;51.606;9.988;2024-01-06T02:17:46;2.20;;;1.25;;
57113;SDS011;42994;51.606;9.988;2024-01-06T02:20:13;7.35;;;1.35;;
57113;SDS011;42994;51.606;9.988;2024-01-06T02:22:46;7.65;;;1.63;;
57113;SDS011;42994;51.606;9.988;2024-01-06T02:25:12;8.45;;;1.65;;
57113;SDS011;42994;51.606;9.988;2024-01-06T02:27:39;3.88;;;1.48;;
57113;SDS011;42994;51.606;9.988;2024-01-06T02:30:06;3.55;;;1.48;;
57113;SDS011;42994;51.606;9.988;2024-01-06T02:32:33;6.15;;;1.40;;
57113;SDS011;42994;51.606;9.988;2024-01-06T02:35:00;4.38;;;1.55;;
57113;SDS011;42994;51.606;9.988;2024-01-06T02:37:27;5.07;;;1.50;;
57113;SDS011;42994;51.606;9.988;2024-01-06T02:39:55;4.15;;;1.30;;
57113;SDS011;42994;51.606;9.988;2024-01-06T02:42:21;2.80;;;1.10;;
57113;SDS011;42994;51.606;9.988;2024-01-06T02:44:49;3.33;;;1.70;;
57113;SDS011;42994;51.606;9.988;2024-01-06T02:47:15;4.32;;;1.33;;
57113;SDS011;42994;51.606;9.988;2024-01-06T02:49:42;3.88;;;1.35;;
57113;SDS011;42994;51.606;9.988;2024-01-06T02:52:09;2.85;;;1.17;;
57113;SDS011;42994;51.606;9.988;2024-01-06T02:54:35;7.93;;;1.52;;
57113;SDS011;42994;51.606;9.988;2024-01-06T02:57:03;4.35;;;1.15;;
57113;SDS011;42994;51.606;9.988;2024-01-06T02:59:30;2.72;;;1.38;;
57113;SDS011;42994;51.606;9.988;2024-01-06T03:01:58;5.88;;;1.33;;
57113;SDS011;42994;51.606;9.988;2024-01-06T03:04:24;4.25;;;1.35;;
57113;SDS011;42994;51.606;9.988;2024-01-06T03:06:51;7.90;;;1.90;;
57113;SDS011;42994;51.606;9.988;2024-01-06T03:09:18;5.45;;;1.48;;
57113;SDS011;42994;51.606;9.988;2024-01-06T03:11:45;5.90;;;1.10;;
57113;SDS011;42994;51.606;9.988;2024-01-06T03:14:13;5.32;;;1.52;;
57113;SDS011;42994;51.606;9.988;2024-01-06T03:16:40;3.85;;;1.10;;
57113;SDS011;42994;51.606;9.988;2024-01-06T03:19:06;3.05;;;1.00;;
57113;SDS011;42994;51.606;9.988;2024-01-06T03:21:33;4.65;;;1.67;;
57113;SDS011;42994;51.606;9.988;2024-01-06T03:23:59;5.18;;;1.45;;
57113;SDS011;42994;51.606;9.988;2024-01-06T03:26:26;4.82;;;1.50;;
57113;SDS011;42994;51.606;9.988;2024-01-06T03:28:54;5.20;;;1.73;;
57113;SDS011;42994;51.606;9.988;2024-01-06T03:31:22;4.72;;;1.10;;
57113;SDS011;42994;51.606;9.988;2024-01-06T03:33:48;1.60;;;0.98;;
57113;SDS011;42994;51.606;9.988;2024-01-06T03:36:16;6.10;;;1.35;;
57113;SDS011;42994;51.606;9.988;2024-01-06T03:38:43;8.75;;;1.38;;
57113;SDS011;42994;51.606;9.988;2024-01-06T03:41:09;3.78;;;1.25;;
57113;SDS011;42994;51.606;9.988;2024-01-06T03:43:36;3.70;;;1.10;;
57113;SDS011;42994;51.606;9.988;2024-01-06T03:46:03;8.32;;;1.50;;
57113;SDS011;42994;51.606;9.988;2024-01-06T03:48:32;3.67;;;1.20;;
57113;SDS011;42994;51.606;9.988;2024-01-06T03:50:59;5.50;;;1.33;;
57113;SDS011;42994;51.606;9.988;2024-01-06T03:53:26;3.95;;;1.42;;
57113;SDS011;42994;51.606;9.988;2024-01-06T03:55:53;5.82;;;1.35;;
57113;SDS011;42994;51.606;9.988;2024-01-06T03:58:20;3.95;;;1.48;;
57113;SDS011;42994;51.606;9.988;2024-01-06T04:00:46;9.05;;;1.25;;
57113;SDS011;42994;51.606;9.988;2024-01-06T04:03:13;4.40;;;1.38;;
57113;SDS011;42994;51.606;9.988;2024-01-06T04:05:41;6.35;;;1.20;;
57113;SDS011;42994;51.606;9.988;2024-01-06T04:08:08;5.47;;;1.20;;
57113;SDS011;42994;51.606;9.988;2024-01-06T04:10:34;4.10;;;1.30;;
57113;SDS011;42994;51.606;9.988;2024-01-06T04:13:01;3.10;;;0.90;;
57113;SDS011;42994;51.606;9.988;2024-01-06T04:15:27;2.38;;;1.30;;
57113;SDS011;42994;51.606;9.988;2024-01-06T04:17:54;7.68;;;1.10;;
57113;SDS011;42994;51.606;9.988;2024-01-06T04:20:21;4.72;;;1.20;;
57113;SDS011;42994;51.606;9.988;2024-01-06T04:22:48;2.53;;;1.13;;
57113;SDS011;42994;51.606;9.988;2024-01-06T04:25:15;3.50;;;1.42;;
57113;SDS011;42994;51.606;9.988;2024-01-06T04:27:42;3.22;;;1.25;;
57113;SDS011;42994;51.606;9.988;2024-01-06T04:30:10;9.23;;;1.48;;
57113;SDS011;42994;51.606;9.988;2024-01-06T04:32:37;5.97;;;1.45;;
57113;SDS011;42994;51.606;9.988;2024-01-06T04:35:04;5.63;;;1.15;;
57113;SDS011;42994;51.606;9.988;2024-01-06T04:37:31;5.75;;;1.40;;
57113;SDS011;42994;51.606;9.988;2024-01-06T04:40:00;4.38;;;1.55;;
57113;SDS011;42994;51.606;9.988;2024-01-06T04:42:27;4.53;;;1.17;;
57113;SDS011;42994;51.606;9.988;2024-01-06T04:44:53;9.70;;;1.23;;
57113;SDS011;42994;51.606;9.988;2024-01-06T04:47:20;4.85;;;1.33;;
57113;SDS011;42994;51.606;9.988;2024-01-06T04:49:46;4.97;;;1.30;;
57113;SDS011;42994;51.606;9.988;2024-01-06T04:52:13;5.82;;;1.20;;
57113;SDS011;42994;51.606;9.988;2024-01-06T04:54:40;4.10;;;1.70;;
57113;SDS011;42994;51.606;9.988;2024-01-06T04:57:08;3.78;;;1.30;;
57113;SDS011;42994;51.606;9.988;2024-01-06T04:59:34;19.50;;;10.82;;
57113;SDS011;42994;51.606;9.988;2024-01-06T05:02:01;4.38;;;1.30;;
57113;SDS011;42994;51.606;9.988;2024-01-06T05:04:28;6.88;;;1.23;;
57113;SDS011;42994;51.606;9.988;2024-01-06T05:06:56;3.53;;;1.35;;
57113;SDS011;42994;51.606;9.988;2024-01-06T05:09:22;3.58;;;1.55;;
57113;SDS011;42994;51.606;9.988;2024-01-06T05:11:49;3.50;;;1.30;;
57113;SDS011;42994;51.606;9.988;2024-01-06T05:14:17;2.90;;;1.25;;
57113;SDS011;42994;51.606;9.988;2024-01-06T05:16:43;3.03;;;1.50;;
57113;SDS011;42994;51.606;9.988;2024-01-06T05:19:10;4.50;;;1.23;;
57113;SDS011;42994;51.606;9.988;2024-01-06T05:21:37;3.70;;;1.63;;
57113;SDS011;42994;51.606;9.988;2024-01-06T05:24:04;6.20;;;1.50;;
57113;SDS011;42994;51.606;9.988;2024-01-06T05:26:31;3.35;;;2.05;;
57113;SDS011;42994;51.606;9.988;2024-01-06T05:28:57;5.03;;;1.60;;
57113;SDS011;42994;51.606;9.988;2024-01-06T05:31:25;6.15;;;1.83;;
57113;SDS011;42994;51.606;9.988;2024-01-06T05:33:52;1.75;;;1.52;;
57113;SDS011;42994;51.606;9.988;2024-01-06T05:36:18;4.20;;;1.90;;
57113;SDS011;42994;51.606;9.988;2024-01-06T05:38:45;6.90;;;1.52;;
57113;SDS011;42994;51.606;9.988;2024-01-06T05:41:12;2.13;;;1.58;;
57113;SDS011;42994;51.606;9.988;2024-01-06T05:43:38;4.22;;;1.70;;
57113;SDS011;42994;51.606;9.988;2024-01-06T05:46:05;4.70;;;2.42;;
57113;SDS011;42994;51.606;9.988;2024-01-06T05:48:33;4.50;;;1.55;;
57113;SDS011;42994;51.606;9.988;2024-01-06T05:51:00;2.80;;;1.38;;
57113;SDS011;42994;51.606;9.988;2024-01-06T05:53:26;3.15;;;1.60;;
57113;SDS011;42994;51.606;9.988;2024-01-06T05:55:53;6.85;;;1.77;;
57113;SDS011;42994;51.606;9.988;2024-01-06T05:58:20;4.22;;;1.25;;
57113;SDS011;42994;51.606;9.988;2024-01-06T06:00:47;4.35;;;1.55;;
57113;SDS011;42994;51.606;9.988;2024-01-06T06:03:13;3.60;;;2.40;;
57113;SDS011;42994;51.606;9.988;2024-01-06T06:05:41;6.95;;;1.70;;
57113;SDS011;42994;51.606;9.988;2024-01-06T06:08:08;3.17;;;1.33;;
57113;SDS011;42994;51.606;9.988;2024-01-06T06:10:35;4.13;;;1.50;;
57113;SDS011;42994;51.606;9.988;2024-01-06T06:13:16;6.75;;;1.45;;
57113;SDS011;42994;51.606;9.988;2024-01-06T06:15:43;8.73;;;2.17;;
57113;SDS011;42994;51.606;9.988;2024-01-06T06:18:10;7.10;;;1.70;;
57113;SDS011;42994;51.606;9.988;2024-01-06T06:20:37;2.58;;;1.60;;
57113;SDS011;42994;51.606;9.988;2024-01-06T06:23:05;8.32;;;1.95;;
57113;SDS011;42994;51.606;9.988;2024-01-06T06:25:31;3.13;;;1.63;;
57113;SDS011;42994;51.606;9.988;2024-01-06T06:27:58;5.93;;;1.85;;
57113;SDS011;42994;51.606;9.988;2024-01-06T06:30:25;2.25;;;1.75;;
57113;SDS011;42994;51.606;9.988;2024-01-06T06:32:52;1.88;;;1.23;;
57113;SDS011;42994;51.606;9.988;2024-01-06T06:35:18;3.70;;;1.40;;
57113;SDS011;42994;51.606;9.988;2024-01-06T06:37:45;4.50;;;1.98;;
57113;SDS011;42994;51.606;9.988;2024-01-06T06:40:13;1.75;;;1.40;;
57113;SDS011;42994;51.606;9.988;2024-01-06T06:42:40;5.30;;;1.77;;
57113;SDS011;42994;51.606;9.988;2024-01-06T06:45:07;4.03;;;1.70;;
57113;SDS011;42994;51.606;9.988;2024-01-06T06:47:36;2.72;;;1.95;;
57113;SDS011;42994;51.606;9.988;2024-01-06T06:50:04;5.10;;;1.85;;
57113;SDS011;42994;51.606;9.988;2024-01-06T06:52:31;7.00;;;1.63;;
57113;SDS011;42994;51.606;9.988;2024-01-06T06:54:57;5.93;;;1.40;;
57113;SDS011;42994;51.606;9.988;2024-01-06T06:57:25;4.15;;;1.50;;
57113;SDS011;42994;51.606;9.988;2024-01-06T06:59:52;3.95;;;1.65;;
57113;SDS011;42994;51.606;9.988;2024-01-06T07:02:18;5.88;;;1.40;;
57113;SDS011;42994;51.606;9.988;2024-01-06T07:04:45;2.58;;;1.13;;
57113;SDS011;42994;51.606;9.988;2024-01-06T07:07:12;4.22;;;2.05;;
57113;SDS011;42994;51.606;9.988;2024-01-06T07:09:40;6.43;;;1.30;;
57113;SDS011;42994;51.606;9.988;2024-01-06T07:12:06;4.88;;;2.15;;
57113;SDS011;42994;51.606;9.988;2024-01-06T07:14:35;2.25;;;1.00;;
57113;SDS011;42994;51.606;9.988;2024-01-06T07:17:02;4.80;;;1.40;;
57113;SDS011;42994;51.606;9.988;2024-01-06T07:19:29;4.70;;;2.15;;
57113;SDS011;42994;51.606;9.988;2024-01-06T07:21:55;3.55;;;1.63;;
57113;SDS011;42994;51.606;9.988;2024-01-06T07:24:22;2.88;;;1.45;;
57113;SDS011;42994;51.606;9.988;2024-01-06T07:26:48;4.82;;;1.65;;
57113;SDS011;42994;51.606;9.988;2024-01-06T07:29:15;1.98;;;1.40;;
57113;SDS011;42994;51.606;9.988;2024-01-06T07:31:44;3.15;;;2.72;;
57113;SDS011;42994;51.606;9.988;2024-01-06T07:34:10;6.60;;;2.78;;
57113;SDS011;42994;51.606;9.988;2024-01-06T07:36:37;7.35;;;4.25;;
57113;SDS011;42994;51.606;9.988;2024-01-06T07:39:05;11.23;;;3.20;;
57113;SDS011;42994;51.606;9.988;2024-01-06T07:41:31;5.78;;;3.05;;
57113;SDS011;42994;51.606;9.988;2024-01-06T07:43:58;4.43;;;2.92;;
57113;SDS011;42994;51.606;9.988;2024-01-06T07:46:26;12.63;;;2.53;;
57113;SDS011;42994;51.606;9.988;2024-01-06T07:48:54;7.75;;;3.60;;
57113;SDS011;42994;51.606;9.988;2024-01-06T07:51:20;5.22;;;2.75;;
57113;SDS011;42994;51.606;9.988;2024-01-06T07:53:47;8.73;;;3.13;;
57113;SDS011;42994;51.606;9.988;2024-01-06T07:56:14;7.13;;;3.30;;
57113;SDS011;42994;51.606;9.988;2024-01-06T07:58:41;5.70;;;3.17;;
57113;SDS011;42994;51.606;9.988;2024-01-06T08:01:08;9.20;;;3.03;;
57113;SDS011;42994;51.606;9.988;2024-01-06T08:03:34;5.20;;;3.10;;
57113;SDS011;42994;51.606;9.988;2024-01-06T08:06:03;7.65;;;3.40;;
57113;SDS011;42994;51.606;9.988;2024-01-06T08:08:29;4.78;;;3.15;;
57113;SDS011;42994;51.606;9.988;2024-01-06T08:10:56;8.48;;;2.72;;
57113;SDS011;42994;51.606;9.988;2024-01-06T08:13:23;8.93;;;3.63;;
57113;SDS011;42994;51.606;9.988;2024-01-06T08:15:49;5.15;;;3.60;;
57113;SDS011;42994;51.606;9.988;2024-01-06T08:18:16;11.63;;;4.00;;
57113;SDS011;42994;51.606;9.988;2024-01-06T08:20:43;4.15;;;3.08;;
57113;SDS011;42994;51.606;9.988;2024-01-06T08:23:11;5.30;;;4.28;;
57113;SDS011;42994;51.606;9.988;2024-01-06T08:25:37;7.82;;;4.10;;
57113;SDS011;42994;51.606;9.988;2024-01-06T08:28:04;4.57;;;3.90;;
57113;SDS011;42994;51.606;9.988;2024-01-06T08:30:31;10.55;;;4.65;;
57113;SDS011;42994;51.606;9.988;2024-01-06T08:32:58;11.07;;;4.82;;
57113;SDS011;42994;51.606;9.988;2024-01-06T08:35:25;8.32;;;5.57;;
57113;SDS011;42994;51.606;9.988;2024-01-06T08:37:52;18.58;;;8.68;;
57113;SDS011;42994;51.606;9.988;2024-01-06T08:40:20;18.35;;;6.63;;
57113;SDS011;42994;51.606;9.988;2024-01-06T08:42:46;13.48;;;6.53;;
57113;SDS011;42994;51.606;9.988;2024-01-06T08:45:14;11.90;;;6.80;;
57113;SDS011;42994;51.606;9.988;2024-01-06T08:47:40;13.95;;;7.07;;
57113;SDS011;42994;51.606;9.988;2024-01-06T08:50:07;12.45;;;6.22;;
57113;SDS011;42994;51.606;9.988;2024-01-06T08:52:34;8.98;;;4.97;;
57113;SDS011;42994;51.606;9.988;2024-01-06T08:55:00;7.55;;;4.88;;
57113;SDS011;42994;51.606;9.988;2024-01-06T08:57:28;7.22;;;3.90;;
57113;SDS011;42994;51.606;9.988;2024-01-06T08:59:55;5.63;;;4.10;;
57113;SDS011;42994;51.606;9.988;2024-01-06T09:02:22;7.45;;;3.88;;
57113;SDS011;42994;51.606;9.988;2024-01-06T09:04:48;8.05;;;3.92;;
57113;SDS011;42994;51.606;9.988;2024-01-06T09:07:15;6.95;;;3.85;;
57113;SDS011;42994;51.606;9.988;2024-01-06T09:09:42;6.13;;;3.50;;
57113;SDS011;42994;51.606;9.988;2024-01-06T09:12:09;5.00;;;3.38;;
57113;SDS011;42994;51.606;9.988;2024-01-06T09:14:37;6.55;;;3.20;;
57113;SDS011;42994;51.606;9.988;2024-01-06T09:17:04;5.60;;;3.15;;
57113;SDS011;42994;51.606;9.988;2024-01-06T09:19:31;6.35;;;3.15;;
57113;SDS011;42994;51.606;9.988;2024-01-06T09:21:57;6.85;;;3.60;;
57113;SDS011;42994;51.606;9.988;2024-01-06T09:24:24;7.60;;;4.85;;
57113;SDS011;42994;51.606;9.988;2024-01-06T09:26:50;11.70;;;3.90;;
57113;SDS011;42994;51.606;9.988;2024-01-06T09:29:17;7.93;;;4.05;;
57113;SDS011;42994;51.606;9.988;2024-01-06T09:31:45;12.15;;;4.47;;
57113;SDS011;42994;51.606;9.988;2024-01-06T09:34:11;8.95;;;5.18;;
57113;SDS011;42994;51.606;9.988;2024-01-06T09:36:38;7.47;;;4.63;;
57113;SDS011;42994;51.606;9.988;2024-01-06T09:39:05;13.07;;;4.60;;
57113;SDS011;42994;51.606;9.988;2024-01-06T09:41:33;6.30;;;4.30;;
57113;SDS011;42994;51.606;9.988;2024-01-06T09:44:00;9.23;;;4.65;;
57113;SDS011;42994;51.606;9.988;2024-01-06T09:46:27;7.28;;;5.07;;
57113;SDS011;42994;51.606;9.988;2024-01-06T09:48:57;10.23;;;4.82;;
57113;SDS011;42994;51.606;9.988;2024-01-06T09:51:24;12.07;;;5.05;;
57113;SDS011;42994;51.606;9.988;2024-01-06T09:53:53;14.68;;;6.75;;
57113;SDS011;42994;51.606;9.988;2024-01-06T09:56:24;12.38;;;8.05;;
57113;SDS011;42994;51.606;9.988;2024-01-06T09:58:51;12.90;;;7.13;;
57113;SDS011;42994;51.606;9.988;2024-01-06T10:01:17;14.55;;;6.20;;
57113;SDS011;42994;51.606;9.988;2024-01-06T10:03:44;10.68;;;5.70;;
57113;SDS011;42994;51.606;9.988;2024-01-06T10:06:13;11.57;;;5.85;;
57113;SDS011;42994;51.606;9.988;2024-01-06T10:08:41;7.47;;;4.57;;
57113;SDS011;42994;51.606;9.988;2024-01-06T10:11:08;10.07;;;4.65;;
57113;SDS011;42994;51.606;9.988;2024-01-06T10:13:35;11.15;;;5.13;;
57113;SDS011;42994;51.606;9.988;2024-01-06T10:16:03;12.90;;;5.32;;
57113;SDS011;42994;51.606;9.988;2024-01-06T10:18:30;21.48;;;9.60;;
57113;SDS011;42994;51.606;9.988;2024-01-06T10:20:57;20.20;;;9.32;;
57113;SDS011;42994;51.606;9.988;2024-01-06T10:23:27;20.85;;;9.88;;
57113;SDS011;42994;51.606;9.988;2024-01-06T10:25:54;14.95;;;8.13;;
57113;SDS011;42994;51.606;9.988;2024-01-06T10:28:21;14.55;;;7.07;;
57113;SDS011;42994;51.606;9.988;2024-01-06T10:30:49;7.60;;;4.97;;
57113;SDS011;42994;51.606;9.988;2024-01-06T10:33:17;8.82;;;5.63;;
57113;SDS011;42994;51.606;9.988;2024-01-06T10:35:45;9.15;;;5.55;;
57113;SDS011;42994;51.606;9.988;2024-01-06T10:38:12;9.80;;;5.50;;
57113;SDS011;42994;51.606;9.988;2024-01-06T10:40:39;8.95;;;5.53;;
57113;SDS011;42994;51.606;9.988;2024-01-06T10:43:06;11.65;;;5.40;;
57113;SDS011;42994;51.606;9.988;2024-01-06T10:45:35;5.55;;;3.97;;
57113;SDS011;42994;51.606;9.988;2024-01-06T10:48:02;9.50;;;4.35;;
57113;SDS011;42994;51.606;9.988;2024-01-06T10:50:32;12.38;;;4.90;;
57113;SDS011;42994;51.606;9.988;2024-01-06T10:52:59;8.82;;;4.75;;
57113;SDS011;42994;51.606;9.988;2024-01-06T10:55:28;6.80;;;4.70;;
57113;SDS011;42994;51.606;9.988;2024-01-06T10:57:58;15.73;;;4.90;;
57113;SDS011;42994;51.606;9.988;2024-01-06T11:00:26;6.88;;;4.88;;
57113;SDS011;42994;51.606;9.988;2024-01-06T11:02:52;11.77;;;4.65;;
57113;SDS011;42994;51.606;9.988;2024-01-06T11:05:21;9.43;;;4.28;;
57113;SDS011;42994;51.606;9.988;2024-01-06T11:07:48;8.70;;;4.80;;
57113;SDS011;42994;51.606;9.988;2024-01-06T11:10:17;10.25;;;4.78;;
57113;SDS011;42994;51.606;9.988;2024-01-06T11:12:45;11.35;;;4.63;;
57113;SDS011;42994;51.606;9.988;2024-01-06T11:15:20;12.10;;;5.00;;
57113;SDS011;42994;51.606;9.988;2024-01-06T11:18:05;10.38;;;4.47;;
57113;SDS011;42994;51.606;9.988;2024-01-06T11:20:32;10.07;;;4.95;;
57113;SDS011;42994;51.606;9.988;2024-01-06T11:23:16;7.13;;;4.40;;
57113;SDS011;42994;51.606;9.988;2024-01-06T11:25:44;7.20;;;4.25;;
57113;SDS011;42994;51.606;9.988;2024-01-06T11:28:11;9.98;;;4.13;;
57113;SDS011;42994;51.606;9.988;2024-01-06T11:30:40;12.45;;;5.20;;
57113;SDS011;42994;51.606;9.988;2024-01-06T11:33:08;8.10;;;4.07;;
57113;SDS011;42994;51.606;9.988;2024-01-06T11:35:36;12.05;;;4.05;;
57113;SDS011;42994;51.606;9.988;2024-01-06T11:38:06;12.57;;;4.57;;
57113;SDS011;42994;51.606;9.988;2024-01-06T11:40:34;8.95;;;3.83;;
57113;SDS011;42994;51.606;9.988;2024-01-06T11:43:03;9.00;;;3.75;;
57113;SDS011;42994;51.606;9.988;2024-01-06T11:45:31;9.23;;;3.90;;
57113;SDS011;42994;51.606;9.988;2024-01-06T11:48:01;4.75;;;3.42;;
57113;SDS011;42994;51.606;9.988;2024-01-06T11:50:28;9.57;;;4.97;;
57113;SDS011;42994;51.606;9.988;2024-01-06T11:52:55;15.20;;;4.97;;
57113;SDS011;42994;51.606;9.988;2024-01-06T11:55:22;9.05;;;4.57;;
57113;SDS011;42994;51.606;9.988;2024-01-06T11:57:49;11.63;;;4.90;;
57113;SDS011;42994;51.606;9.988;2024-01-06T12:00:16;7.03;;;4.75;;
57113;SDS011;42994;51.606;9.988;2024-01-06T12:02:43;9.23;;;4.38;;
57113;SDS011;42994;51.606;9.988;2024-01-06T12:05:14;8.77;;;4.68;;
57113;SDS011;42994;51.606;9.988;2024-01-06T12:07:43;8.48;;;5.05;;
57113;SDS011;42994;51.606;9.988;2024-01-06T12:10:19;9.98;;;4.25;;
57113;SDS011;42994;51.606;9.988;2024-01-06T12:12:54;7.82;;;4.68;;
57113;SDS011;42994;51.606;9.988;2024-01-06T12:15:21;10.90;;;5.25;;
57113;SDS011;42994;51.606;9.988;2024-01-06T12:17:48;8.75;;;4.85;;
57113;SDS011;42994;51.606;9.988;2024-01-06T12:20:16;11.48;;;7.22;;
57113;SDS011;42994;51.606;9.988;2024-01-06T12:22:42;25.67;;;12.00;;
57113;SDS011;42994;51.606;9.988;2024-01-06T12:25:09;18.60;;;10.23;;
57113;SDS011;42994;51.606;9.988;2024-01-06T12:27:41;18.58;;;9.18;;
57113;SDS011;42994;51.606;9.988;2024-01-06T12:30:11;16.73;;;7.57;;
57113;SDS011;42994;51.606;9.988;2024-01-06T12:32:40;10.65;;;6.25;;
57113;SDS011;42994;51.606;9.988;2024-01-06T12:35:08;9.57;;;5.80;;
57113;SDS011;42994;51.606;9.988;2024-01-06T12:37:37;9.88;;;5.43;;
57113;SDS011;42994;51.606;9.988;2024-01-06T12:40:03;12.38;;;4.80;;
57113;SDS011;42994;51.606;9.988;2024-01-06T12:42:30;8.95;;;4.88;;
57113;SDS011;42994;51.606;9.988;2024-01-06T12:44:57;11.38;;;5.05;;
57113;SDS011;42994;51.606;9.988;2024-01-06T12:47:24;9.20;;;5.47;;
57113;SDS011;42994;51.606;9.988;2024-01-06T12:49:51;10.35;;;5.93;;
57113;SDS011;42994;51.606;9.988;2024-01-06T12:52:17;11.95;;;6.00;;
57113;SDS011;42994;51.606;9.988;2024-01-06T12:54:45;8.73;;;5.40;;
57113;SDS011;42994;51.606;9.988;2024-01-06T12:57:12;8.30;;;4.90;;
57113;SDS011;42994;51.606;9.988;2024-01-06T12:59:39;10.10;;;4.85;;
57113;SDS011;42994;51.606;9.988;2024-01-06T13:02:05;11.00;;;6.10;;
57113;SDS011;42994;51.606;9.988;2024-01-06T13:04:32;9.55;;;6.63;;
57113;SDS011;42994;51.606;9.988;2024-01-06T13:06:59;13.00;;;6.00;;
57113;SDS011;42994;51.606;9.988;2024-01-06T13:09:26;13.00;;;6.05;;
57113;SDS011;42994;51.606;9.988;2024-01-06T13:11:55;9.32;;;6.57;;
57113;SDS011;42994;51.606;9.988;2024-01-06T13:14:25;14.27;;;6.20;;
57113;SDS011;42994;51.606;9.988;2024-01-06T13:16:52;11.20;;;6.38;;
57113;SDS011;42994;51.606;9.988;2024-01-06T13:19:20;12.82;;;6.45;;
57113;SDS011;42994;51.606;9.988;2024-01-06T13:21:46;12.65;;;7.25;;
57113;SDS011;42994;51.606;9.988;2024-01-06T13:24:13;12.02;;;5.82;;
57113;SDS011;42994;51.606;9.988;2024-01-06T13:26:39;12.07;;;6.53;;
57113;SDS011;42994;51.606;9.988;2024-01-06T13:29:07;8.60;;;5.40;;
57113;SDS011;42994;51.606;9.988;2024-01-06T13:31:34;9.60;;;5.22;;
57113;SDS011;42994;51.606;9.988;2024-01-06T13:34:02;8.27;;;5.32;;
57113;SDS011;42994;51.606;9.988;2024-01-06T13:36:28;10.45;;;5.63;;
57113;SDS011;42994;51.606;9.988;2024-01-06T13:38:55;11.50;;;6.47;;
57113;SDS011;42994;51.606;9.988;2024-01-06T13:41:22;11.60;;;6.65;;
57113;SDS011;42994;51.606;9.988;2024-01-06T13:43:48;14.13;;;7.18;;
57113;SDS011;42994;51.606;9.988;2024-01-06T13:46:17;17.00;;;7.75;;
57113;SDS011;42994;51.606;9.988;2024-01-06T13:48:43;12.40;;;7.40;;
57113;SDS011;42994;51.606;9.988;2024-01-06T13:51:10;9.23;;;6.13;;
57113;SDS011;42994;51.606;9.988;2024-01-06T13:53:37;15.27;;;6.20;;
57113;SDS011;42994;51.606;9.988;2024-01-06T13:56:04;13.52;;;7.13;;
57113;SDS011;42994;51.606;9.988;2024-01-06T13:58:31;14.95;;;6.03;;
57113;SDS011;42994;51.606;9.988;2024-01-06T14:01:00;11.88;;;6.75;;
57113;SDS011;42994;51.606;9.988;2024-01-06T14:03:29;9.32;;;5.90;;
57113;SDS011;42994;51.606;9.988;2024-01-06T14:05:55;11.63;;;6.72;;
57113;SDS011;42994;51.606;9.988;2024-01-06T14:08:22;14.25;;;8.45;;
57113;SDS011;42994;51.606;9.988;2024-01-06T14:10:49;13.90;;;5.85;;
57113;SDS011;42994;51.606;9.988;2024-01-06T14:13:15;8.82;;;5.63;;
57113;SDS011;42994;51.606;9.988;2024-01-06T14:15:42;11.45;;;5.90;;
57113;SDS011;42994;51.606;9.988;2024-01-06T14:18:09;9.48;;;6.38;;
57113;SDS011;42994;51.606;9.988;2024-01-06T14:20:38;13.38;;;6.15;;
57113;SDS011;42994;51.606;9.988;2024-01-06T14:23:05;14.23;;;6.22;;
57113;SDS011;42994;51.606;9.988;2024-01-06T14:25:32;15.57;;;6.50;;
57113;SDS011;42994;51.606;9.988;2024-01-06T14:27:58;14.07;;;6.88;;
57113;SDS011;42994;51.606;9.988;2024-01-06T14:30:25;15.95;;;6.57;;
57113;SDS011;42994;51.606;9.988;2024-01-06T14:32:52;9.57;;;6.47;;
57113;SDS011;42994;51.606;9.988;2024-01-06T14:35:19;12.05;;;6.90;;
57113;SDS011;42994;51.606;9.988;2024-01-06T14:37:48;9.38;;;6.13;;
57113;SDS011;42994;51.606;9.988;2024-01-06T14:40:16;13.48;;;6.10;;
57113;SDS011;42994;51.606;9.988;2024-01-06T14:42:42;9.98;;;6.43;;